createdAt,value
2019-02-07T00:00:26.723Z,2.62
2019-02-07T00:01:34.019Z,2.60
2019-02-07T00:02:40.059Z,2.56
2019-02-07T00:03:47.038Z,2.56
2019-02-07T00:04:53.060Z,2.62
2019-02-07T00:06:00.129Z,2.61
2019-02-07T00:07:06.590Z,2.58
2019-02-07T00:08:13.159Z,2.59
2019-02-07T00:09:20.197Z,2.61
2019-02-07T00:10:26.775Z,2.57
2019-02-07T00:11:33.799Z,2.55
2019-02-07T00:12:40.323Z,2.52
2019-02-07T00:13:46.230Z,2.55
2019-02-07T00:14:52.015Z,2.53
2019-02-07T00:15:58.407Z,2.52
2019-02-07T00:17:04.200Z,2.52
2019-02-07T00:18:11.237Z,2.51
2019-02-07T00:19:18.378Z,2.46
2019-02-07T00:20:25.618Z,2.45
2019-02-07T00:21:31.784Z,2.40
2019-02-07T00:22:39.317Z,2.41
2019-02-07T00:23:45.206Z,2.39
2019-02-07T00:24:51.567Z,2.38
2019-02-07T00:25:58.086Z,2.37
2019-02-07T00:27:04.283Z,2.34
2019-02-07T00:28:10.714Z,2.33
2019-02-07T00:29:17.624Z,2.33
2019-02-07T00:30:24.423Z,2.34
2019-02-07T00:31:31.274Z,2.38
2019-02-07T00:32:39.015Z,2.36
2019-02-07T00:33:44.982Z,2.36
2019-02-07T00:34:52.174Z,2.33
2019-02-07T00:35:58.655Z,2.35
2019-02-07T00:37:04.709Z,2.31
2019-02-07T00:38:14.985Z,2.32
2019-02-07T00:39:21.614Z,2.32
2019-02-07T00:40:28.187Z,2.36
2019-02-07T00:41:34.396Z,2.37
2019-02-07T00:42:42.172Z,2.36
2019-02-07T00:43:48.465Z,2.34
2019-02-07T00:44:55.267Z,2.31
2019-02-07T00:46:03.215Z,2.29
2019-02-07T00:47:09.754Z,2.29
2019-02-07T00:48:17.718Z,2.29
2019-02-07T00:49:24.366Z,2.28
2019-02-07T00:50:31.335Z,2.27
2019-02-07T00:51:38.304Z,2.24
2019-02-07T00:52:44.907Z,2.23
2019-02-07T00:53:51.855Z,2.21
2019-02-07T00:54:57.688Z,2.20
2019-02-07T00:56:03.939Z,2.18
2019-02-07T00:57:10.498Z,2.17
2019-02-07T00:58:16.358Z,2.13
2019-02-07T00:59:23.029Z,2.11
2019-02-07T01:00:31.830Z,2.11
2019-02-07T01:01:37.697Z,2.13
2019-02-07T01:02:43.919Z,2.12
2019-02-07T01:03:50.087Z,2.08
2019-02-07T01:04:56.025Z,2.09
2019-02-07T01:06:02.917Z,2.07
2019-02-07T01:07:10.178Z,2.08
2019-02-07T01:08:17.927Z,2.08
2019-02-07T01:09:24.559Z,2.07
2019-02-07T01:10:32.715Z,2.04
2019-02-07T01:11:38.258Z,2.05
2019-02-07T01:12:45.178Z,2.07
2019-02-07T01:13:52.154Z,2.05
2019-02-07T01:15:02.159Z,2.03
2019-02-07T01:16:06.875Z,2.05
2019-02-07T01:17:13.875Z,2.05
2019-02-07T01:18:20.070Z,2.04
2019-02-07T01:19:27.933Z,2.05
2019-02-07T01:20:35.115Z,2.03
2019-02-07T01:21:40.895Z,2.03
2019-02-07T01:22:46.783Z,2.01
2019-02-07T01:23:55.341Z,2.01
2019-02-07T01:25:01.691Z,2.01
2019-02-07T01:26:08.449Z,1.99
2019-02-07T01:27:15.538Z,1.96
2019-02-07T01:28:23.066Z,1.99
2019-02-07T01:29:29.389Z,1.96
2019-02-07T01:30:37.168Z,1.90
2019-02-07T01:31:43.811Z,1.89
2019-02-07T01:32:50.611Z,1.94
2019-02-07T01:33:56.961Z,1.92
2019-02-07T01:35:02.682Z,1.94
2019-02-07T01:36:10.029Z,1.97
2019-02-07T01:37:15.806Z,1.96
2019-02-07T01:38:22.158Z,1.97
2019-02-07T01:39:29.159Z,1.94
2019-02-07T01:40:35.070Z,1.95
2019-02-07T01:41:41.929Z,1.93
2019-02-07T01:42:48.158Z,1.90
2019-02-07T01:43:54.531Z,1.81
2019-02-07T01:45:01.173Z,1.75
2019-02-07T01:46:08.868Z,1.78
2019-02-07T01:47:14.644Z,1.79
2019-02-07T01:48:21.983Z,1.80
2019-02-07T01:49:27.913Z,1.80
2019-02-07T01:50:34.120Z,1.81
2019-02-07T01:51:40.073Z,1.82
2019-02-07T01:52:46.930Z,1.83
2019-02-07T01:53:52.850Z,1.84
2019-02-07T01:55:00.630Z,1.82
2019-02-07T01:56:08.542Z,1.86
2019-02-07T01:57:14.374Z,1.88
2019-02-07T01:58:21.564Z,1.90
2019-02-07T01:59:29.435Z,1.92
2019-02-07T02:00:35.785Z,1.93
2019-02-07T02:01:42.103Z,1.93
2019-02-07T02:02:48.389Z,1.98
2019-02-07T02:03:54.662Z,2.00
2019-02-07T02:05:01.383Z,2.01
2019-02-07T02:06:07.571Z,2.02
2019-02-07T02:07:14.052Z,1.97
2019-02-07T02:08:20.502Z,1.97
2019-02-07T02:09:26.538Z,1.97
2019-02-07T02:10:32.983Z,2.00
2019-02-07T02:11:40.095Z,1.97
2019-02-07T02:12:46.335Z,1.98
2019-02-07T02:13:53.380Z,1.99
2019-02-07T02:14:59.809Z,2.02
2019-02-07T02:16:06.079Z,2.00
2019-02-07T02:17:11.973Z,1.99
2019-02-07T02:18:19.576Z,1.94
2019-02-07T02:19:25.999Z,1.92
2019-02-07T02:20:34.089Z,1.91
2019-02-07T02:21:41.280Z,1.89
2019-02-07T02:22:48.232Z,1.88
2019-02-07T02:23:54.266Z,1.87
2019-02-07T02:25:00.402Z,1.87
2019-02-07T02:26:06.439Z,1.87
2019-02-07T02:27:13.398Z,1.86
2019-02-07T02:28:20.982Z,1.84
2019-02-07T02:29:27.681Z,1.85
2019-02-07T02:30:36.933Z,1.86
2019-02-07T02:31:42.964Z,1.85
2019-02-07T02:32:49.790Z,1.86
2019-02-07T02:33:56.848Z,1.84
2019-02-07T02:35:02.551Z,1.84
2019-02-07T02:36:08.941Z,1.84
2019-02-07T02:37:17.170Z,1.83
2019-02-07T02:38:22.965Z,1.77
2019-02-07T02:39:29.571Z,1.74
2019-02-07T02:40:36.757Z,1.73
2019-02-07T02:41:42.921Z,1.70
2019-02-07T02:42:49.821Z,1.72
2019-02-07T02:43:57.330Z,1.69
2019-02-07T02:45:03.000Z,1.67
2019-02-07T02:46:09.931Z,1.65
2019-02-07T02:47:16.318Z,1.65
2019-02-07T02:48:23.529Z,1.65
2019-02-07T02:49:30.091Z,1.63
2019-02-07T02:50:36.191Z,1.64
2019-02-07T02:51:42.072Z,1.62
2019-02-07T02:52:49.321Z,1.65
2019-02-07T02:53:57.330Z,1.63
2019-02-07T02:55:05.292Z,1.64
2019-02-07T02:56:11.941Z,1.61
2019-02-07T02:57:18.167Z,1.62
2019-02-07T02:58:24.590Z,1.60
2019-02-07T02:59:31.251Z,1.60
2019-02-07T03:00:46.021Z,1.60
2019-02-07T03:02:08.956Z,1.63
2019-02-07T03:03:23.677Z,1.61
2019-02-07T03:04:31.215Z,1.62
2019-02-07T03:05:42.884Z,1.65
2019-02-07T03:06:54.189Z,1.67
2019-02-07T03:08:10.638Z,1.65
2019-02-07T03:09:25.082Z,1.67
2019-02-07T03:10:41.893Z,1.67
2019-02-07T03:11:56.637Z,1.68
2019-02-07T03:13:07.720Z,1.69
2019-02-07T03:14:17.978Z,1.70
2019-02-07T03:15:49.330Z,1.70
2019-02-07T03:16:52.778Z,1.69
2019-02-07T03:18:03.444Z,1.67
2019-02-07T03:19:09.411Z,1.66
2019-02-07T03:20:20.705Z,1.63
2019-02-07T03:21:35.956Z,1.63
2019-02-07T03:22:44.133Z,1.61
2019-02-07T03:23:52.041Z,1.60
2019-02-07T03:24:59.882Z,1.60
2019-02-07T03:26:23.240Z,1.61
2019-02-07T03:27:29.178Z,1.63
2019-02-07T03:28:42.876Z,1.62
2019-02-07T03:29:50.378Z,1.62
2019-02-07T03:30:57.551Z,1.61
2019-02-07T03:32:21.856Z,1.57
2019-02-07T03:33:45.753Z,1.56
2019-02-07T03:34:53.650Z,1.53
2019-02-07T03:36:11.042Z,1.54
2019-02-07T03:37:21.357Z,1.54
2019-02-07T03:38:47.113Z,1.54
2019-02-07T03:40:01.208Z,1.55
2019-02-07T03:41:28.055Z,1.53
2019-02-07T03:42:45.486Z,1.49
2019-02-07T03:44:01.860Z,1.46
2019-02-07T03:45:25.314Z,1.45
2019-02-07T03:46:44.999Z,1.47
2019-02-07T03:48:10.689Z,1.47
2019-02-07T03:49:17.964Z,1.47
2019-02-07T03:50:25.249Z,1.48
2019-02-07T03:51:34.570Z,1.49
2019-02-07T03:52:44.621Z,1.50
2019-02-07T03:53:58.247Z,1.52
2019-02-07T03:55:20.973Z,1.51
2019-02-07T03:56:43.637Z,1.51
2019-02-07T03:58:07.862Z,1.51
2019-02-07T03:59:19.522Z,1.44
2019-02-07T04:00:30.493Z,1.42
2019-02-07T04:01:45.694Z,1.40
2019-02-07T04:02:53.080Z,1.40
2019-02-07T04:04:06.589Z,1.34
2019-02-07T04:05:21.459Z,1.37
2019-02-07T04:06:29.146Z,1.33
2019-02-07T04:07:46.339Z,1.33
2019-02-07T04:08:53.632Z,1.34
2019-02-07T04:10:17.170Z,1.32
2019-02-07T04:11:33.478Z,1.35
2019-02-07T04:12:54.137Z,1.31
2019-02-07T04:14:02.039Z,1.33
2019-02-07T04:15:13.944Z,1.28
2019-02-07T04:16:21.334Z,1.26
2019-02-07T04:17:45.063Z,1.25
2019-02-07T04:18:58.714Z,1.24
2019-02-07T04:20:14.580Z,1.22
2019-02-07T04:21:32.321Z,1.19
2019-02-07T04:22:43.195Z,1.17
2019-02-07T04:23:49.757Z,1.14
2019-02-07T04:25:10.619Z,1.09
2019-02-07T04:26:31.629Z,1.04
2019-02-07T04:27:45.441Z,1.01
2019-02-07T04:29:10.550Z,0.97
2019-02-07T04:30:16.898Z,0.96
2019-02-07T04:31:24.106Z,0.93
2019-02-07T04:32:34.549Z,0.91
2019-02-07T04:33:58.023Z,0.87
2019-02-07T04:35:06.299Z,0.84
2019-02-07T04:36:17.729Z,0.84
2019-02-07T04:37:26.233Z,0.82
2019-02-07T04:38:31.594Z,0.82
2019-02-07T04:39:39.537Z,0.80
2019-02-07T04:40:47.717Z,0.75
2019-02-07T04:42:11.064Z,0.74
2019-02-07T04:43:17.751Z,0.72
2019-02-07T04:44:25.426Z,0.70
2019-02-07T04:45:36.336Z,0.69
2019-02-07T04:46:54.272Z,0.68
2019-02-07T04:48:04.640Z,0.64
2019-02-07T04:49:18.583Z,0.62
2019-02-07T04:50:33.423Z,0.64
2019-02-07T04:51:45.521Z,0.60
2019-02-07T04:53:12.440Z,0.56
2019-02-07T04:54:32.532Z,0.54
2019-02-07T04:55:58.151Z,0.53
2019-02-07T04:57:18.710Z,0.53
2019-02-07T04:58:43.596Z,0.50
2019-02-07T05:00:03.060Z,0.47
2019-02-07T05:01:26.511Z,0.41
2019-02-07T05:02:50.802Z,0.41
2019-02-07T05:04:14.552Z,0.41
2019-02-07T05:05:38.119Z,0.39
2019-02-07T05:06:45.383Z,0.39
2019-02-07T05:07:52.846Z,0.35
2019-02-07T05:09:16.733Z,0.34
2019-02-07T05:10:31.596Z,0.35
2019-02-07T05:11:45.878Z,0.35
2019-02-07T05:13:03.044Z,0.37
2019-02-07T05:14:27.239Z,0.36
2019-02-07T05:15:38.163Z,0.31
2019-02-07T05:16:48.227Z,0.31
2019-02-07T05:17:56.278Z,0.30
2019-02-07T05:19:19.983Z,0.29
2019-02-07T05:20:31.063Z,0.29
2019-02-07T05:21:38.594Z,0.30
2019-02-07T05:22:47.119Z,0.26
2019-02-07T05:24:07.417Z,0.23
2019-02-07T05:25:31.786Z,0.22
2019-02-07T05:26:43.580Z,0.18
2019-02-07T05:28:08.668Z,0.18
2019-02-07T05:29:17.089Z,0.21
2019-02-07T05:30:27.387Z,0.21
2019-02-07T05:31:34.922Z,0.22
2019-02-07T05:32:44.608Z,0.22
2019-02-07T05:33:58.673Z,0.22
2019-02-07T05:35:25.700Z,0.21
2019-02-07T05:36:42.509Z,0.21
2019-02-07T05:38:07.501Z,0.21
2019-02-07T05:39:18.330Z,0.16
2019-02-07T05:40:26.608Z,0.15
2019-02-07T05:41:51.147Z,0.13
2019-02-07T05:43:13.790Z,0.10
2019-02-07T05:44:24.753Z,0.09
2019-02-07T05:45:33.241Z,0.09
2019-02-07T05:46:57.131Z,0.10
2019-02-07T05:48:22.450Z,0.10
2019-02-07T05:49:30.639Z,0.07
2019-02-07T05:50:38.182Z,0.05
2019-02-07T05:51:55.710Z,0.05
2019-02-07T05:53:01.370Z,0.06
2019-02-07T05:54:12.242Z,0.06
2019-02-07T05:55:23.116Z,0.06
2019-02-07T05:56:33.842Z,0.06
2019-02-07T05:57:51.250Z,0.06
2019-02-07T05:59:07.444Z,0.03
2019-02-07T06:00:34.782Z,0.06
2019-02-07T06:01:54.947Z,0.05
2019-02-07T06:03:03.411Z,0.00
2019-02-07T06:04:27.640Z,0.02
2019-02-07T06:05:35.233Z,0.01
2019-02-07T06:06:47.386Z,-0.02
2019-02-07T06:08:10.559Z,-0.01
2019-02-07T06:09:18.279Z,0.00
2019-02-07T06:10:42.213Z,0.00
2019-02-07T06:12:09.165Z,0.03
2019-02-07T06:13:34.055Z,0.04
2019-02-07T06:14:42.833Z,0.02
2019-02-07T06:15:57.121Z,0.00
2019-02-07T06:17:17.955Z,-0.02
2019-02-07T06:18:45.969Z,-0.07
2019-02-07T06:20:09.712Z,-0.12
2019-02-07T06:21:26.515Z,-0.10
2019-02-07T06:22:43.987Z,-0.06
2019-02-07T06:23:52.350Z,-0.09
2019-02-07T06:25:08.541Z,-0.08
2019-02-07T06:26:19.770Z,-0.09
2019-02-07T06:27:27.588Z,-0.09
2019-02-07T06:28:35.372Z,-0.11
2019-02-07T06:29:46.140Z,-0.09
2019-02-07T06:30:54.155Z,-0.06
2019-02-07T06:32:01.806Z,-0.02
2019-02-07T06:33:25.688Z,0.00
2019-02-07T06:34:37.257Z,-0.03
2019-02-07T06:35:48.116Z,-0.04
2019-02-07T06:36:56.390Z,-0.02
2019-02-07T06:38:04.010Z,-0.01
2019-02-07T06:39:31.018Z,-0.02
2019-02-07T06:40:51.935Z,-0.02
2019-02-07T06:42:09.580Z,-0.01
2019-02-07T06:43:23.593Z,0.00
2019-02-07T06:44:38.354Z,-0.01
2019-02-07T06:45:49.094Z,-0.01
2019-02-07T06:46:57.917Z,0.00
2019-02-07T06:48:08.275Z,-0.02
2019-02-07T06:49:22.505Z,0.00
2019-02-07T06:50:35.827Z,0.03
2019-02-07T06:51:50.786Z,0.06
2019-02-07T06:52:58.991Z,0.02
2019-02-07T06:54:26.724Z,0.02
2019-02-07T06:55:39.877Z,0.07
2019-02-07T06:57:17.029Z,0.10
2019-02-07T06:58:26.657Z,0.11
2019-02-07T06:59:36.878Z,0.10
2019-02-07T07:01:01.757Z,0.11
2019-02-07T07:02:23.953Z,0.11
2019-02-07T07:03:39.653Z,0.14
2019-02-07T07:04:52.287Z,0.12
2019-02-07T07:06:11.756Z,0.10
2019-02-07T07:07:36.474Z,0.11
2019-02-07T07:08:56.346Z,0.14
2019-02-07T07:10:28.934Z,0.14
2019-02-07T07:11:41.006Z,0.12
2019-02-07T07:12:51.654Z,0.13
2019-02-07T07:13:58.938Z,0.15
2019-02-07T07:15:31.093Z,0.12
2019-02-07T07:16:43.195Z,0.15
2019-02-07T07:17:52.915Z,0.16
2019-02-07T07:19:03.901Z,0.14
2019-02-07T07:20:18.214Z,0.11
2019-02-07T07:21:34.744Z,0.10
2019-02-07T07:22:45.993Z,0.11
2019-02-07T07:23:58.415Z,0.12
2019-02-07T07:25:28.302Z,0.15
2019-02-07T07:26:34.954Z,0.15
2019-02-07T07:28:00.855Z,0.15
2019-02-07T07:29:09.474Z,0.17
2019-02-07T07:30:34.036Z,0.21
2019-02-07T07:32:01.494Z,0.16
2019-02-07T07:33:25.548Z,0.18
2019-02-07T07:34:35.424Z,0.16
2019-02-07T07:35:44.446Z,0.19
2019-02-07T07:36:52.315Z,0.19
2019-02-07T07:38:00.309Z,0.22
2019-02-07T07:39:25.796Z,0.23
2019-02-07T07:40:51.530Z,0.22
2019-02-07T07:42:12.435Z,0.25
2019-02-07T07:43:20.334Z,0.26
2019-02-07T07:44:43.874Z,0.27
2019-02-07T07:46:15.094Z,0.26
2019-02-07T07:48:01.230Z,0.29
2019-02-07T07:49:19.838Z,0.30
2019-02-07T07:50:37.275Z,0.30
2019-02-07T07:51:43.714Z,0.35
2019-02-07T07:52:57.556Z,0.39
2019-02-07T07:54:12.474Z,0.41
2019-02-07T07:55:25.651Z,0.45
2019-02-07T07:56:52.237Z,0.49
2019-02-07T07:58:03.394Z,0.45
2019-02-07T07:59:15.401Z,0.51
2019-02-07T08:00:34.056Z,0.50
2019-02-07T08:01:39.984Z,0.53
2019-02-07T08:02:54.834Z,0.52
2019-02-07T08:04:07.658Z,0.55
2019-02-07T08:05:22.591Z,0.55
2019-02-07T08:06:36.534Z,0.57
2019-02-07T08:08:00.931Z,0.60
2019-02-07T08:09:15.774Z,0.60
2019-02-07T08:10:27.553Z,0.65
2019-02-07T08:11:37.754Z,0.68
2019-02-07T08:12:52.969Z,0.71
2019-02-07T08:14:08.016Z,0.72
2019-02-07T08:15:29.134Z,0.73
2019-02-07T08:16:38.343Z,0.75
2019-02-07T08:17:52.689Z,0.77
2019-02-07T08:19:06.742Z,0.80
2019-02-07T08:20:30.593Z,0.80
2019-02-07T08:21:56.903Z,0.81
2019-02-07T08:23:04.147Z,0.84
2019-02-07T08:24:27.354Z,0.86
2019-02-07T08:25:42.534Z,0.87
2019-02-07T08:26:50.475Z,0.90
2019-02-07T08:27:59.717Z,0.92
2019-02-07T08:29:21.531Z,0.95
2019-02-07T08:30:36.420Z,1.00
2019-02-07T08:31:46.955Z,1.04
2019-02-07T08:32:59.996Z,1.05
2019-02-07T08:34:26.454Z,1.10
2019-02-07T08:35:33.925Z,1.11
2019-02-07T08:36:50.019Z,1.16
2019-02-07T08:37:58.278Z,1.22
2019-02-07T08:39:11.135Z,1.24
2019-02-07T08:40:28.860Z,1.28
2019-02-07T08:41:52.855Z,1.33
2019-02-07T08:42:58.475Z,1.36
2019-02-07T08:44:03.962Z,1.38
2019-02-07T08:45:13.373Z,1.38
2019-02-07T08:46:29.544Z,1.38
2019-02-07T08:47:58.571Z,1.35
2019-02-07T08:49:07.449Z,1.36
2019-02-07T08:50:25.674Z,1.38
2019-02-07T08:51:36.141Z,1.40
2019-02-07T08:52:54.016Z,1.42
2019-02-07T08:54:00.802Z,1.43
2019-02-07T08:55:08.502Z,1.47
2019-02-07T08:56:32.556Z,1.48
2019-02-07T08:57:40.699Z,1.55
2019-02-07T08:58:46.514Z,1.60
2019-02-07T09:00:10.174Z,1.65
2019-02-07T09:01:38.055Z,1.67
2019-02-07T09:03:03.333Z,1.70
2019-02-07T09:04:31.847Z,1.71
2019-02-07T09:05:53.450Z,1.75
2019-02-07T09:07:17.553Z,1.78
2019-02-07T09:08:28.738Z,1.77
2019-02-07T09:09:41.434Z,1.76
2019-02-07T09:11:03.245Z,1.82
2019-02-07T09:12:16.204Z,1.83
2019-02-07T09:13:39.754Z,1.88
2019-02-07T09:14:53.168Z,1.90
2019-02-07T09:16:15.473Z,1.92
2019-02-07T09:17:20.916Z,1.96
2019-02-07T09:18:38.330Z,1.99
2019-02-07T09:19:51.896Z,2.01
2019-02-07T09:21:14.284Z,2.05
2019-02-07T09:22:23.810Z,2.07
2019-02-07T09:23:35.926Z,2.09
2019-02-07T09:24:59.694Z,2.12
2019-02-07T09:26:16.247Z,2.13
2019-02-07T09:27:24.741Z,2.21
2019-02-07T09:28:40.734Z,2.25
2019-02-07T09:29:51.415Z,2.27
2019-02-07T09:31:04.767Z,2.28
2019-02-07T09:32:24.493Z,2.29
2019-02-07T09:33:44.895Z,2.33
2019-02-07T09:34:58.015Z,2.38
2019-02-07T09:36:24.155Z,2.39
2019-02-07T09:37:30.738Z,2.41
2019-02-07T09:38:41.034Z,2.44
2019-02-07T09:40:04.599Z,2.48
2019-02-07T09:41:21.946Z,2.50
2019-02-07T09:42:42.712Z,2.54
2019-02-07T09:43:53.874Z,2.59
2019-02-07T09:45:05.162Z,2.60
2019-02-07T09:46:25.914Z,2.61
2019-02-07T09:47:35.728Z,2.64
2019-02-07T09:48:48.694Z,2.68
2019-02-07T09:50:08.234Z,2.71
2019-02-07T09:51:23.416Z,2.76
2019-02-07T09:52:36.835Z,2.81
2019-02-07T09:54:02.436Z,2.88
2019-02-07T09:55:13.307Z,2.93
2019-02-07T09:56:22.114Z,2.99
2019-02-07T09:57:30.918Z,3.04
2019-02-07T09:58:43.489Z,3.11
2019-02-07T10:00:06.695Z,3.16
2019-02-07T10:01:20.187Z,3.24
2019-02-07T10:02:38.107Z,3.32
2019-02-07T10:03:52.535Z,3.36
2019-02-07T10:05:09.364Z,3.47
2019-02-07T10:06:17.202Z,3.54
2019-02-07T10:07:42.852Z,3.64
2019-02-07T10:08:53.414Z,3.69
2019-02-07T10:10:13.914Z,3.86
2019-02-07T10:11:36.254Z,4.00
2019-02-07T10:12:57.188Z,4.13
2019-02-07T10:14:13.814Z,4.26
2019-02-07T10:15:39.238Z,4.36
2019-02-07T10:17:01.534Z,4.43
2019-02-07T10:18:32.787Z,4.56
2019-02-07T10:19:36.268Z,4.67
2019-02-07T10:20:47.612Z,4.77
2019-02-07T10:22:10.305Z,4.86
2019-02-07T10:23:23.610Z,4.92
2019-02-07T10:24:47.694Z,5.00
2019-02-07T10:26:11.657Z,5.08
2019-02-07T10:27:22.194Z,5.12
2019-02-07T10:28:45.755Z,5.17
2019-02-07T10:29:54.040Z,5.19
2019-02-07T10:31:17.703Z,5.27
2019-02-07T10:32:27.749Z,5.32
2019-02-07T10:33:33.307Z,5.36
2019-02-07T10:34:44.445Z,5.44
2019-02-07T10:36:01.074Z,5.52
2019-02-07T10:37:09.894Z,5.56
2019-02-07T10:38:17.888Z,5.61
2019-02-07T10:39:35.902Z,5.60
2019-02-07T10:40:52.673Z,5.56
2019-02-07T10:42:16.974Z,5.52
2019-02-07T10:43:40.094Z,5.50
2019-02-07T10:44:49.014Z,5.41
2019-02-07T10:46:08.293Z,5.36
2019-02-07T10:47:33.494Z,5.39
2019-02-07T10:48:44.652Z,5.38
2019-02-07T10:49:59.445Z,5.38
2019-02-07T10:51:06.562Z,5.34
2019-02-07T10:52:20.105Z,5.30
2019-02-07T10:53:33.730Z,5.28
2019-02-07T10:54:53.675Z,5.28
2019-02-07T10:56:17.862Z,5.30
2019-02-07T10:57:31.633Z,5.33
2019-02-07T10:58:37.054Z,5.32
2019-02-07T10:59:46.101Z,5.26
2019-02-07T11:01:00.515Z,5.20
2019-02-07T11:02:15.375Z,5.11
2019-02-07T11:03:31.333Z,5.12
2019-02-07T11:04:59.884Z,5.11
2019-02-07T11:06:27.259Z,5.14
2019-02-07T11:07:36.234Z,5.16
2019-02-07T11:08:52.290Z,5.18
2019-02-07T11:10:09.273Z,5.22
2019-02-07T11:11:18.814Z,5.24
2019-02-07T11:12:36.415Z,5.27
2019-02-07T11:13:47.791Z,5.28
2019-02-07T11:15:01.415Z,5.28
2019-02-07T11:16:18.715Z,5.32
2019-02-07T11:17:31.427Z,5.28
2019-02-07T11:18:55.723Z,5.30
2019-02-07T11:20:08.237Z,5.33
2019-02-07T11:21:16.794Z,5.34
2019-02-07T11:22:24.242Z,5.37
2019-02-07T11:23:34.327Z,5.40
2019-02-07T11:24:44.154Z,5.42
2019-02-07T11:26:03.634Z,5.39
2019-02-07T11:27:11.673Z,5.39
2019-02-07T11:28:19.465Z,5.40
2019-02-07T11:29:28.634Z,5.40
2019-02-07T11:30:39.902Z,5.39
2019-02-07T11:32:03.575Z,5.39
2019-02-07T11:33:17.363Z,5.38
2019-02-07T11:34:30.842Z,5.34
2019-02-07T11:35:57.324Z,5.34
2019-02-07T11:37:11.467Z,5.32
2019-02-07T11:38:20.173Z,5.31
2019-02-07T11:39:29.781Z,5.29
2019-02-07T11:40:41.290Z,5.32
2019-02-07T11:41:55.434Z,5.35
2019-02-07T11:43:06.717Z,5.39
2019-02-07T11:44:15.206Z,5.39
2019-02-07T11:45:22.694Z,5.37
2019-02-07T11:46:48.778Z,5.39
2019-02-07T11:47:59.215Z,5.39
2019-02-07T11:49:19.014Z,5.37
2019-02-07T11:50:32.854Z,5.36
2019-02-07T11:51:43.814Z,5.40
2019-02-07T11:53:09.547Z,5.38
2019-02-07T11:54:24.536Z,5.38
2019-02-07T11:55:32.334Z,5.42
2019-02-07T11:56:55.963Z,5.46
2019-02-07T11:58:10.315Z,5.48
2019-02-07T11:59:35.914Z,5.52
2019-02-07T12:01:02.934Z,5.58
2019-02-07T12:02:19.927Z,5.61
2019-02-07T12:03:33.873Z,5.61
2019-02-07T12:04:42.559Z,5.64
2019-02-07T12:05:51.114Z,5.65
2019-02-07T12:07:01.227Z,5.68
2019-02-07T12:08:26.237Z,5.70
2019-02-07T12:09:34.754Z,5.68
2019-02-07T12:10:49.174Z,5.72
2019-02-07T12:12:05.862Z,5.74
2019-02-07T12:13:17.274Z,5.71
2019-02-07T12:14:36.415Z,5.69
2019-02-07T12:15:46.673Z,5.73
2019-02-07T12:16:57.334Z,5.81
2019-02-07T12:18:21.277Z,5.83
2019-02-07T12:19:34.574Z,5.86
2019-02-07T12:20:55.293Z,5.86
2019-02-07T12:22:18.956Z,5.90
2019-02-07T12:23:30.442Z,5.96
2019-02-07T12:24:47.515Z,5.98
2019-02-07T12:25:56.034Z,5.98
2019-02-07T12:27:14.277Z,6.06
2019-02-07T12:28:31.995Z,6.08
2019-02-07T12:29:46.767Z,6.12
2019-02-07T12:31:11.194Z,6.13
2019-02-07T12:32:19.666Z,6.11
2019-02-07T12:33:43.913Z,6.06
2019-02-07T12:34:51.874Z,6.06
2019-02-07T12:36:00.713Z,6.11
2019-02-07T12:37:17.746Z,6.15
2019-02-07T12:38:40.494Z,6.17
2019-02-07T12:40:04.210Z,6.19
2019-02-07T12:41:15.887Z,6.22
2019-02-07T12:42:28.894Z,6.32
2019-02-07T12:43:39.084Z,6.39
2019-02-07T12:45:01.268Z,6.37
2019-02-07T12:46:09.832Z,6.32
2019-02-07T12:47:19.996Z,6.26
2019-02-07T12:48:36.417Z,6.27
2019-02-07T12:50:00.031Z,6.28
2019-02-07T12:51:20.675Z,6.28
2019-02-07T12:52:44.235Z,6.28
2019-02-07T12:54:02.540Z,6.24
2019-02-07T12:55:11.995Z,6.17
2019-02-07T12:56:22.855Z,6.05
2019-02-07T12:57:48.775Z,6.00
2019-02-07T12:58:57.376Z,6.00
2019-02-07T13:00:24.053Z,5.99
2019-02-07T13:01:48.715Z,5.96
2019-02-07T13:03:01.676Z,5.90
2019-02-07T13:04:08.649Z,5.93
2019-02-07T13:05:35.615Z,5.90
2019-02-07T13:06:57.110Z,5.86
2019-02-07T13:08:03.876Z,5.82
2019-02-07T13:09:10.736Z,5.77
2019-02-07T13:10:27.417Z,5.74
2019-02-07T13:11:37.723Z,5.72
2019-02-07T13:13:00.851Z,5.70
2019-02-07T13:14:08.306Z,5.64
2019-02-07T13:15:16.665Z,5.56
2019-02-07T13:16:40.195Z,5.47
2019-02-07T13:17:52.077Z,5.41
2019-02-07T13:19:12.261Z,5.35
2019-02-07T13:20:33.172Z,5.27
2019-02-07T13:21:40.435Z,5.20
2019-02-07T13:22:45.970Z,5.14
2019-02-07T13:23:59.601Z,5.07
2019-02-07T13:25:13.122Z,5.02
2019-02-07T13:26:19.451Z,4.98
2019-02-07T13:27:45.179Z,4.90
2019-02-07T13:28:58.819Z,4.89
2019-02-07T13:30:30.936Z,4.85
2019-02-07T13:31:40.794Z,4.82
2019-02-07T13:33:04.021Z,4.83
2019-02-07T13:34:18.109Z,4.84
2019-02-07T13:35:42.075Z,4.88
2019-02-07T13:36:48.108Z,4.94
2019-02-07T13:38:11.992Z,4.93
2019-02-07T13:39:33.395Z,4.92
2019-02-07T13:40:54.029Z,4.96
2019-02-07T13:42:08.515Z,4.95
2019-02-07T13:43:22.652Z,4.95
2019-02-07T13:44:29.928Z,4.95
2019-02-07T13:45:44.236Z,4.95
2019-02-07T13:47:03.716Z,4.95
2019-02-07T13:48:14.995Z,4.94
2019-02-07T13:49:20.376Z,4.89
2019-02-07T13:50:27.696Z,4.87
2019-02-07T13:51:33.457Z,4.86
2019-02-07T13:52:47.068Z,4.83
2019-02-07T13:53:59.546Z,4.80
2019-02-07T13:55:24.775Z,4.79
2019-02-07T13:56:33.117Z,4.78
2019-02-07T13:57:40.777Z,4.73
2019-02-07T13:59:04.954Z,4.74
2019-02-07T14:00:20.257Z,4.75
2019-02-07T14:01:31.469Z,4.79
2019-02-07T14:02:55.436Z,4.77
2019-02-07T14:04:05.998Z,4.78
2019-02-07T14:05:13.870Z,4.78
2019-02-07T14:06:27.588Z,4.79
2019-02-07T14:07:51.652Z,4.80
2019-02-07T14:08:59.176Z,4.80
2019-02-07T14:10:19.989Z,4.79
2019-02-07T14:11:27.715Z,4.74
2019-02-07T14:12:35.150Z,4.71
2019-02-07T14:13:58.948Z,4.66
2019-02-07T14:15:10.155Z,4.63
2019-02-07T14:16:33.608Z,4.55
2019-02-07T14:17:41.909Z,4.51
2019-02-07T14:18:47.428Z,4.44
2019-02-07T14:20:04.136Z,4.41
2019-02-07T14:21:14.356Z,4.38
2019-02-07T14:22:33.768Z,4.31
2019-02-07T14:23:51.668Z,4.23
2019-02-07T14:25:02.136Z,4.11
2019-02-07T14:26:13.136Z,4.05
2019-02-07T14:27:25.628Z,3.99
2019-02-07T14:28:39.849Z,3.95
2019-02-07T14:29:47.356Z,3.90
2019-02-07T14:31:01.536Z,3.88
2019-02-07T14:32:09.436Z,3.87
2019-02-07T14:33:26.944Z,3.84
2019-02-07T14:34:51.835Z,3.82
2019-02-07T14:36:08.430Z,3.81
2019-02-07T14:37:18.736Z,3.79
2019-02-07T14:38:29.990Z,3.79
2019-02-07T14:39:37.228Z,3.74
2019-02-07T14:40:50.335Z,3.71
2019-02-07T14:42:03.063Z,3.68
2019-02-07T14:43:12.046Z,3.66
2019-02-07T14:44:35.937Z,3.59
2019-02-07T14:45:46.195Z,3.57
2019-02-07T14:46:53.129Z,3.54
2019-02-07T14:47:58.818Z,3.49
2019-02-07T14:49:06.276Z,3.47
2019-02-07T14:50:14.818Z,3.45
2019-02-07T14:51:20.603Z,3.41
2019-02-07T14:52:27.472Z,3.35
2019-02-07T14:53:34.215Z,3.30
2019-02-07T14:54:45.475Z,3.29
2019-02-07T14:55:53.003Z,3.26
2019-02-07T14:56:59.155Z,3.23
2019-02-07T14:58:07.232Z,3.22
2019-02-07T14:59:13.508Z,3.18
2019-02-07T15:00:24.822Z,3.16
2019-02-07T15:01:33.269Z,3.14
2019-02-07T15:02:41.778Z,3.14
2019-02-07T15:03:50.484Z,3.14
2019-02-07T15:04:59.969Z,3.13
2019-02-07T15:06:11.864Z,3.13
2019-02-07T15:07:20.210Z,3.14
2019-02-07T15:08:29.155Z,3.13
2019-02-07T15:09:38.633Z,3.13
2019-02-07T15:10:47.723Z,3.13
2019-02-07T15:11:54.510Z,3.14
2019-02-07T15:13:06.222Z,3.16
2019-02-07T15:14:12.190Z,3.16
2019-02-07T15:15:26.870Z,3.15
2019-02-07T15:16:34.364Z,3.10
2019-02-07T15:17:39.874Z,3.08
2019-02-07T15:18:46.213Z,3.06
2019-02-07T15:19:52.026Z,3.01
2019-02-07T15:20:57.851Z,2.99
2019-02-07T15:22:03.607Z,2.95
2019-02-07T15:23:09.911Z,2.94
2019-02-07T15:24:16.643Z,2.90
2019-02-07T15:25:22.996Z,2.89
2019-02-07T15:26:29.010Z,2.85
2019-02-07T15:27:35.245Z,2.84
2019-02-07T15:28:42.050Z,2.83
2019-02-07T15:29:47.545Z,2.80
2019-02-07T15:30:54.042Z,2.78
2019-02-07T15:31:59.874Z,2.75
2019-02-07T15:33:06.158Z,2.74
2019-02-07T15:34:12.292Z,2.72
2019-02-07T15:35:22.781Z,2.71
2019-02-07T15:36:28.261Z,2.69
2019-02-07T15:37:35.206Z,2.70
2019-02-07T15:38:40.897Z,2.70
2019-02-07T15:39:46.995Z,2.69
2019-02-07T15:40:55.633Z,2.70
2019-02-07T15:42:01.679Z,2.70
2019-02-07T15:43:07.425Z,2.69
2019-02-07T15:44:13.066Z,2.67
2019-02-07T15:45:18.726Z,2.68
2019-02-07T15:46:24.259Z,2.69
2019-02-07T15:47:29.865Z,2.68
2019-02-07T15:48:35.404Z,2.67
2019-02-07T15:49:42.342Z,2.66
2019-02-07T15:50:48.028Z,2.66
2019-02-07T15:51:53.652Z,2.66
2019-02-07T15:53:00.767Z,2.65
2019-02-07T15:54:06.436Z,2.63
2019-02-07T15:55:12.638Z,2.63
2019-02-07T15:56:18.607Z,2.61
2019-02-07T15:57:25.927Z,2.62
2019-02-07T15:58:38.251Z,2.61
2019-02-07T15:59:46.240Z,2.61
2019-02-07T16:01:05.909Z,2.60
2019-02-07T16:02:13.622Z,2.62
2019-02-07T16:03:20.923Z,2.62
2019-02-07T16:04:27.872Z,2.62
2019-02-07T16:05:34.234Z,2.64
2019-02-07T16:06:39.911Z,2.63
2019-02-07T16:07:46.132Z,2.64
2019-02-07T16:08:52.528Z,2.66